createdAt,value
2019-05-17T00:01:50.624Z,4.53
2019-05-17T00:03:57.267Z,4.00
2019-05-17T00:06:06.483Z,3.40
2019-05-17T00:08:12.385Z,4.22
2019-05-17T00:10:18.976Z,3.90
2019-05-17T00:12:27.091Z,3.65
2019-05-17T00:14:34.024Z,4.87
2019-05-17T00:16:40.626Z,4.12
2019-05-17T00:18:47.259Z,4.60
2019-05-17T00:20:53.859Z,4.20
2019-05-17T00:23:00.498Z,4.58
2019-05-17T00:25:09.283Z,5.65
2019-05-17T00:27:17.335Z,5.25
2019-05-17T00:29:26.317Z,4.65
2019-05-17T00:31:32.508Z,4.25
2019-05-17T00:33:39.047Z,4.35
2019-05-17T00:35:46.896Z,4.65
2019-05-17T00:37:53.666Z,3.83
2019-05-17T00:40:00.330Z,4.97
2019-05-17T00:42:07.191Z,4.35
2019-05-17T00:44:13.761Z,4.70
2019-05-17T00:46:20.278Z,4.00
2019-05-17T00:48:26.816Z,5.67
2019-05-17T00:50:37.515Z,4.47
2019-05-17T00:52:42.751Z,3.92
2019-05-17T00:54:49.327Z,4.78
2019-05-17T00:56:56.860Z,6.75
2019-05-17T00:59:03.375Z,3.17
2019-05-17T01:01:09.904Z,5.97
2019-05-17T01:03:16.480Z,5.15
2019-05-17T01:05:23.117Z,4.47
2019-05-17T01:07:29.541Z,4.50
2019-05-17T01:09:36.613Z,4.03
2019-05-17T01:11:43.486Z,4.65
2019-05-17T01:13:49.966Z,4.17
2019-05-17T01:15:56.745Z,4.50
2019-05-17T01:18:03.495Z,3.95
2019-05-17T01:20:10.803Z,4.10
2019-05-17T01:22:17.324Z,4.78
2019-05-17T01:24:23.780Z,5.10
2019-05-17T01:26:30.287Z,4.40
2019-05-17T01:28:37.641Z,4.62
2019-05-17T01:30:46.266Z,5.35
2019-05-17T01:32:52.158Z,4.60
2019-05-17T01:34:58.607Z,5.35
2019-05-17T01:37:06.471Z,4.67
2019-05-17T01:39:17.873Z,3.77
2019-05-17T01:41:21.637Z,4.10
2019-05-17T01:43:28.031Z,5.25
2019-05-17T01:45:36.506Z,5.10
2019-05-17T01:47:42.761Z,7.08
2019-05-17T01:49:49.361Z,4.42
2019-05-17T01:51:56.873Z,5.95
2019-05-17T01:54:03.428Z,4.47
2019-05-17T01:56:09.970Z,4.87
2019-05-17T01:58:16.569Z,4.87
2019-05-17T02:00:23.304Z,5.78
2019-05-17T02:02:31.593Z,4.22
2019-05-17T02:04:38.518Z,4.55
2019-05-17T02:06:46.738Z,6.10
2019-05-17T02:08:53.798Z,4.08
2019-05-17T02:11:00.401Z,5.58
2019-05-17T02:13:07.133Z,5.33
2019-05-17T02:15:16.545Z,4.20
2019-05-17T02:17:23.231Z,8.00
2019-05-17T02:19:29.759Z,5.90
2019-05-17T02:21:38.929Z,5.58
2019-05-17T02:23:46.904Z,6.87
2019-05-17T02:25:52.837Z,4.60
2019-05-17T02:28:01.440Z,5.03
2019-05-17T02:30:08.932Z,5.37
2019-05-17T02:32:17.447Z,4.83
2019-05-17T02:34:23.792Z,6.15
2019-05-17T02:36:33.256Z,5.62
2019-05-17T02:38:38.720Z,5.17
2019-05-17T02:40:45.256Z,5.08
2019-05-17T02:42:53.612Z,8.78
2019-05-17T02:45:03.116Z,6.12
2019-05-17T02:47:08.510Z,5.87
2019-05-17T02:49:15.024Z,5.35
2019-05-17T02:51:23.698Z,6.08
2019-05-17T02:53:33.175Z,6.12
2019-05-17T02:55:38.284Z,8.18
2019-05-17T02:57:44.897Z,6.25
2019-05-17T02:59:52.536Z,8.05
2019-05-17T03:01:59.185Z,5.35
2019-05-17T03:04:05.813Z,7.20
2019-05-17T03:06:13.705Z,5.08
2019-05-17T03:08:23.531Z,6.15
2019-05-17T03:10:29.162Z,6.40
2019-05-17T03:12:35.914Z,6.50
2019-05-17T03:14:43.315Z,6.87
2019-05-17T03:16:53.362Z,9.40
2019-05-17T03:18:58.314Z,10.00
2019-05-17T03:21:05.131Z,6.42
2019-05-17T03:23:12.678Z,8.13
2019-05-17T03:25:19.322Z,6.65
2019-05-17T03:27:25.880Z,6.15
2019-05-17T03:29:33.559Z,6.35
2019-05-17T03:31:49.940Z,6.57
2019-05-17T03:33:55.670Z,9.78
2019-05-17T03:36:06.208Z,9.50
2019-05-17T03:38:14.090Z,6.40
2019-05-17T03:40:46.956Z,5.83
2019-05-17T03:42:29.108Z,10.40
2019-05-17T03:44:35.670Z,6.25
2019-05-17T03:46:42.705Z,6.12
2019-05-17T03:48:52.917Z,6.90
2019-05-17T03:50:58.070Z,6.10
2019-05-17T03:53:04.668Z,9.95
2019-05-17T03:55:13.147Z,8.38
2019-05-17T03:57:23.633Z,7.33
2019-05-17T03:59:28.374Z,7.80
2019-05-17T04:01:34.883Z,11.70
2019-05-17T04:03:43.455Z,6.15
2019-05-17T04:05:52.655Z,8.08
2019-05-17T04:08:03.466Z,6.83
2019-05-17T04:10:09.397Z,7.05
2019-05-17T04:12:16.000Z,6.60
2019-05-17T04:14:22.906Z,6.80
2019-05-17T04:16:29.997Z,7.92
2019-05-17T04:18:36.605Z,7.22
2019-05-17T04:20:43.595Z,8.03
2019-05-17T04:22:52.662Z,6.80
2019-05-17T04:24:58.347Z,7.87
2019-05-17T04:27:07.954Z,8.43
2019-05-17T04:29:15.174Z,9.47
2019-05-17T04:31:23.576Z,7.62
2019-05-17T04:33:33.284Z,7.08
2019-05-17T04:35:43.159Z,8.83
2019-05-17T04:37:52.823Z,8.53
2019-05-17T04:40:03.114Z,9.48
2019-05-17T04:42:08.913Z,7.67
2019-05-17T04:44:17.890Z,6.25
2019-05-17T04:46:24.899Z,9.65
2019-05-17T04:48:32.838Z,6.67
2019-05-17T04:50:42.802Z,8.55
2019-05-17T04:52:48.469Z,9.33
2019-05-17T04:54:56.574Z,8.63
2019-05-17T04:57:04.655Z,11.68
2019-05-17T04:59:13.763Z,7.70
2019-05-17T05:02:03.065Z,6.62
2019-05-17T05:04:07.877Z,6.35
2019-05-17T05:06:14.450Z,7.53
2019-05-17T05:08:23.007Z,7.83
2019-05-17T05:10:33.796Z,8.80
2019-05-17T05:12:39.300Z,7.85
2019-05-17T05:14:47.292Z,6.83
2019-05-17T05:16:53.762Z,8.07
2019-05-17T05:19:03.015Z,7.80
2019-05-17T05:21:12.237Z,10.48
2019-05-17T05:23:18.983Z,7.95
2019-05-17T05:25:25.920Z,6.58
2019-05-17T05:27:34.141Z,6.75
2019-05-17T05:29:41.585Z,7.90
2019-05-17T05:31:48.233Z,6.90
2019-05-17T05:33:56.301Z,7.00
2019-05-17T05:36:03.078Z,9.03
2019-05-17T05:38:12.657Z,6.00
2019-05-17T05:40:21.410Z,8.68
2019-05-17T05:44:33.585Z,6.45
2019-05-17T05:46:42.011Z,7.67
2019-05-17T05:48:48.284Z,15.75
2019-05-17T05:50:56.413Z,7.08
2019-05-17T05:53:04.217Z,7.83
2019-05-17T05:55:12.399Z,13.28
2019-05-17T05:57:22.076Z,40.35
2019-05-17T05:59:28.769Z,33.63
2019-05-17T06:01:35.936Z,16.00
2019-05-17T06:03:44.456Z,8.75
2019-05-17T06:05:53.640Z,5.85
2019-05-17T06:08:00.171Z,6.67
2019-05-17T06:10:12.606Z,5.90
2019-05-17T06:12:24.793Z,7.60
2019-05-17T06:14:28.089Z,6.03
2019-05-17T06:16:35.040Z,7.10
2019-05-17T06:18:43.041Z,8.33
2019-05-17T06:20:52.215Z,7.62
2019-05-17T06:22:59.150Z,10.05
2019-05-17T06:25:08.504Z,10.90
2019-05-17T06:27:15.045Z,6.15
2019-05-17T06:29:22.514Z,11.15
2019-05-17T06:31:28.972Z,8.28
2019-05-17T06:33:37.074Z,7.58
2019-05-17T06:35:43.601Z,7.75
2019-05-17T06:37:50.079Z,8.50
2019-05-17T06:39:56.467Z,8.13
2019-05-17T06:42:03.031Z,8.88
2019-05-17T06:44:12.000Z,5.70
2019-05-17T06:46:17.656Z,5.30
2019-05-17T06:48:24.164Z,5.70
2019-05-17T06:50:32.605Z,7.20
2019-05-17T06:52:39.462Z,9.13
2019-05-17T06:54:46.046Z,6.28
2019-05-17T06:56:52.661Z,8.05
2019-05-17T06:58:59.481Z,12.03
2019-05-17T07:01:09.428Z,8.90
2019-05-17T07:03:17.134Z,6.17
2019-05-17T07:05:29.376Z,9.73
2019-05-17T07:07:37.554Z,7.05
2019-05-17T07:09:44.055Z,8.80
2019-05-17T07:11:53.693Z,9.60
2019-05-17T07:14:00.527Z,6.85
2019-05-17T07:16:07.070Z,11.15
2019-05-17T07:18:13.609Z,13.32
2019-05-17T07:20:20.335Z,9.78
2019-05-17T07:22:29.637Z,10.10
2019-05-17T07:24:36.099Z,15.05
2019-05-17T07:26:45.172Z,7.17
2019-05-17T07:28:51.770Z,11.38
2019-05-17T07:30:59.731Z,9.90
2019-05-17T07:33:09.809Z,9.85
2019-05-17T07:37:21.273Z,10.58
2019-05-17T07:39:29.522Z,9.98
2019-05-17T07:41:36.061Z,11.48
2019-05-17T07:43:42.570Z,11.30
2019-05-17T07:45:49.607Z,9.58
2019-05-17T07:47:56.498Z,9.50
2019-05-17T07:50:03.084Z,12.70
2019-05-17T07:52:10.312Z,10.60
2019-05-17T07:54:16.848Z,11.90
2019-05-17T07:56:23.294Z,10.80
2019-05-17T07:58:30.169Z,14.68
2019-05-17T08:00:39.905Z,9.75
2019-05-17T08:02:46.440Z,10.72
2019-05-17T08:04:53.259Z,10.48
2019-05-17T08:06:59.909Z,9.53
2019-05-17T08:09:13.295Z,12.28
2019-05-17T08:11:16.568Z,10.05
2019-05-17T08:13:30.060Z,9.05
2019-05-17T08:15:31.327Z,10.18
2019-05-17T08:17:39.644Z,9.70
2019-05-17T08:19:46.104Z,8.58
2019-05-17T08:21:52.576Z,10.13
2019-05-17T08:24:00.070Z,8.60
2019-05-17T08:28:13.221Z,7.90
2019-05-17T08:30:20.695Z,18.57
2019-05-17T08:32:27.599Z,12.10
2019-05-17T08:34:34.031Z,8.30
2019-05-17T08:36:40.690Z,8.75
2019-05-17T08:38:47.433Z,9.85
2019-05-17T08:40:54.013Z,12.00
2019-05-17T08:43:00.600Z,15.28
2019-05-17T08:45:09.700Z,12.00
2019-05-17T08:47:16.436Z,9.83
2019-05-17T08:49:23.081Z,9.73
2019-05-17T08:51:30.487Z,13.28
2019-05-17T08:53:37.193Z,11.00
2019-05-17T08:55:43.709Z,12.85
2019-05-17T08:57:50.232Z,9.90
2019-05-17T08:59:56.670Z,9.75
2019-05-17T09:02:04.768Z,12.05
2019-05-17T09:04:11.328Z,13.18
2019-05-17T09:06:19.841Z,8.38
2019-05-17T09:08:27.095Z,9.00
2019-05-17T09:10:35.271Z,11.22
2019-05-17T09:12:41.711Z,12.80
2019-05-17T09:14:49.724Z,8.48
2019-05-17T09:16:56.370Z,9.65
2019-05-17T09:19:02.916Z,11.15
2019-05-17T09:21:09.839Z,8.33
2019-05-17T09:23:16.347Z,8.60
2019-05-17T09:25:22.948Z,8.48
2019-05-17T09:27:30.034Z,7.55
2019-05-17T09:29:40.194Z,10.05
2019-05-17T09:31:46.237Z,11.83
2019-05-17T09:33:52.678Z,21.40
2019-05-17T09:36:00.742Z,10.23
2019-05-17T09:38:10.142Z,7.83
2019-05-17T09:40:17.010Z,10.08
2019-05-17T09:42:24.594Z,9.28
2019-05-17T09:44:31.072Z,9.70
2019-05-17T09:46:39.588Z,13.93
2019-05-17T09:48:47.075Z,9.30
2019-05-17T09:50:53.772Z,9.75
2019-05-17T09:53:00.300Z,13.70
2019-05-17T09:55:09.862Z,7.22
2019-05-17T09:57:16.178Z,8.05
2019-05-17T09:59:22.863Z,6.53
2019-05-17T10:01:30.393Z,8.48
2019-05-17T10:03:37.047Z,9.70
2019-05-17T10:05:43.657Z,9.28
2019-05-17T10:07:50.644Z,8.30
2019-05-17T10:09:59.567Z,10.68
2019-05-17T10:12:06.289Z,7.72
2019-05-17T10:14:24.718Z,9.40
2019-05-17T10:16:21.241Z,13.78
2019-05-17T10:18:29.548Z,13.35
2019-05-17T10:20:35.758Z,7.20
2019-05-17T10:22:43.410Z,11.97
2019-05-17T10:24:49.862Z,9.40
2019-05-17T10:26:56.261Z,16.95
2019-05-17T10:29:03.870Z,13.53
2019-05-17T10:31:11.827Z,10.58
2019-05-17T10:33:20.013Z,10.63
2019-05-17T10:35:26.708Z,11.60
2019-05-17T10:37:33.198Z,12.15
2019-05-17T10:39:41.684Z,8.93
2019-05-17T10:41:50.085Z,7.15
2019-05-17T10:43:56.844Z,12.70
2019-05-17T10:46:03.483Z,10.88
2019-05-17T10:48:10.564Z,7.83
2019-05-17T10:50:17.244Z,7.33
2019-05-17T10:52:23.638Z,11.63
2019-05-17T10:54:30.248Z,8.13
2019-05-17T10:56:37.526Z,7.83
2019-05-17T10:58:44.004Z,9.65
2019-05-17T11:00:50.531Z,9.45
2019-05-17T11:02:57.109Z,9.40
2019-05-17T11:05:04.393Z,9.68
2019-05-17T11:07:11.074Z,7.70
2019-05-17T11:09:20.576Z,13.30
2019-05-17T11:11:26.510Z,7.87
2019-05-17T11:13:32.904Z,9.58
2019-05-17T11:15:39.514Z,12.45
2019-05-17T11:17:47.562Z,12.95
2019-05-17T11:19:55.106Z,8.70
2019-05-17T11:22:01.712Z,8.08
2019-05-17T11:24:08.324Z,9.68
2019-05-17T11:26:14.939Z,11.45
2019-05-17T11:28:21.365Z,7.87
2019-05-17T11:30:28.013Z,10.53
2019-05-17T11:32:34.658Z,9.65
2019-05-17T11:34:41.113Z,11.95
2019-05-17T11:36:47.626Z,8.58
2019-05-17T11:38:54.163Z,11.80
2019-05-17T11:41:00.721Z,12.82
2019-05-17T11:43:07.354Z,9.45
2019-05-17T11:45:26.672Z,7.42
2019-05-17T11:47:22.582Z,13.25
2019-05-17T11:49:29.063Z,9.03
2019-05-17T11:51:35.660Z,9.68
2019-05-17T11:53:42.059Z,9.88
2019-05-17T11:55:48.672Z,12.25
2019-05-17T11:57:55.075Z,8.73
2019-05-17T12:00:01.626Z,8.90
2019-05-17T12:02:08.168Z,8.33
2019-05-17T12:04:14.863Z,11.28
2019-05-17T12:06:21.508Z,14.47
2019-05-17T12:08:29.217Z,10.37
2019-05-17T12:10:36.057Z,10.20
2019-05-17T12:12:42.737Z,13.58
2019-05-17T12:14:49.137Z,14.40
2019-05-17T12:16:55.528Z,20.40
2019-05-17T12:19:02.097Z,13.70
2019-05-17T12:21:08.786Z,12.93
2019-05-17T12:23:15.432Z,8.73
2019-05-17T12:25:21.907Z,17.15
2019-05-17T12:27:28.372Z,11.55
2019-05-17T12:29:34.910Z,8.93
2019-05-17T12:31:41.381Z,15.78
2019-05-17T12:33:49.341Z,21.37
2019-05-17T12:35:55.834Z,9.63
2019-05-17T12:38:02.409Z,12.13
2019-05-17T12:40:09.853Z,11.73
2019-05-17T12:42:16.275Z,9.13
2019-05-17T12:44:22.928Z,15.48
2019-05-17T12:46:29.314Z,10.45
2019-05-17T12:48:35.743Z,16.00
2019-05-17T12:50:42.358Z,9.80
2019-05-17T12:52:48.749Z,7.50
2019-05-17T12:54:55.154Z,7.58
2019-05-17T12:57:04.571Z,11.28
2019-05-17T12:59:09.839Z,8.40
2019-05-17T13:01:16.292Z,11.03
2019-05-17T13:03:22.840Z,7.17
2019-05-17T13:05:29.528Z,11.33
2019-05-17T13:07:36.154Z,8.00
2019-05-17T13:09:43.669Z,8.65
2019-05-17T13:11:50.158Z,9.15
2019-05-17T13:13:56.572Z,12.73
2019-05-17T13:16:16.934Z,6.97
2019-05-17T13:18:11.245Z,27.20
2019-05-17T13:20:18.381Z,8.78
2019-05-17T13:22:24.993Z,7.85
2019-05-17T13:24:31.520Z,8.10
2019-05-17T13:26:38.152Z,10.23
2019-05-17T13:28:44.613Z,11.18
2019-05-17T13:30:51.067Z,9.00
2019-05-17T13:32:57.700Z,10.98
2019-05-17T13:35:07.654Z,7.08
2019-05-17T13:37:14.261Z,5.58
2019-05-17T13:39:20.655Z,8.40
2019-05-17T13:41:27.754Z,10.10
2019-05-17T13:43:35.219Z,22.70
2019-05-17T13:45:43.889Z,9.63
2019-05-17T13:47:49.966Z,9.50
2019-05-17T13:49:56.385Z,9.35
2019-05-17T13:52:03.013Z,6.72
2019-05-17T13:54:09.648Z,9.93
2019-05-17T13:56:16.328Z,12.13
2019-05-17T13:58:22.846Z,38.45
2019-05-17T14:00:29.410Z,13.93
2019-05-17T14:02:36.223Z,7.58
2019-05-17T14:04:42.873Z,7.85
2019-05-17T14:06:49.333Z,9.50
2019-05-17T14:08:55.979Z,8.38
2019-05-17T14:11:02.535Z,7.40
2019-05-17T14:13:09.208Z,8.60
2019-05-17T14:15:16.534Z,9.38
2019-05-17T14:17:23.066Z,15.08
2019-05-17T14:19:29.675Z,11.03
2019-05-17T14:21:36.220Z,10.88
2019-05-17T14:23:42.719Z,12.43
2019-05-17T14:25:49.318Z,12.60
2019-05-17T14:27:55.778Z,14.00
2019-05-17T14:30:02.264Z,10.10
2019-05-17T14:32:09.496Z,8.30
2019-05-17T14:34:16.391Z,12.73
2019-05-17T14:36:23.079Z,10.60
2019-05-17T14:38:29.537Z,9.00
2019-05-17T14:41:04.738Z,17.57
2019-05-17T14:42:45.780Z,18.10
2019-05-17T14:44:53.756Z,18.00
2019-05-17T14:47:00.256Z,16.20
2019-05-17T14:49:06.809Z,11.15
2019-05-17T14:51:13.270Z,8.98
2019-05-17T14:53:19.668Z,10.05
2019-05-17T14:55:26.189Z,8.18
2019-05-17T14:57:32.726Z,9.50
2019-05-17T14:59:39.139Z,7.97
2019-05-17T15:01:45.567Z,8.58
2019-05-17T15:03:52.158Z,11.75
2019-05-17T15:05:58.705Z,8.08
2019-05-17T15:08:05.209Z,7.72
2019-05-17T15:10:11.992Z,10.68
2019-05-17T15:12:27.813Z,10.85
2019-05-17T15:14:29.533Z,14.47
2019-05-17T15:16:35.004Z,8.25
2019-05-17T15:18:41.493Z,13.48
2019-05-17T15:20:48.062Z,11.50
2019-05-17T15:22:54.757Z,10.45
2019-05-17T15:25:01.417Z,13.28
2019-05-17T15:27:08.210Z,8.08
2019-05-17T15:29:14.825Z,14.33
2019-05-17T15:31:21.219Z,29.75
2019-05-17T15:33:27.771Z,10.38
2019-05-17T15:35:34.481Z,9.30
2019-05-17T15:37:40.944Z,8.75
2019-05-17T15:39:47.395Z,7.60
2019-05-17T15:41:53.953Z,9.38
2019-05-17T15:44:00.397Z,9.53
2019-05-17T15:46:06.898Z,8.53
2019-05-17T15:48:13.495Z,8.58
2019-05-17T15:50:20.972Z,12.45
2019-05-17T15:52:27.449Z,11.63
2019-05-17T15:54:35.937Z,10.58
2019-05-17T15:56:42.725Z,11.68
2019-05-17T15:58:49.375Z,8.90
2019-05-17T16:00:55.826Z,12.13
2019-05-17T16:03:02.292Z,15.63
2019-05-17T16:05:09.410Z,15.68
2019-05-17T16:07:15.978Z,13.13
2019-05-17T16:09:22.563Z,9.83
2019-05-17T16:11:29.160Z,15.50
2019-05-17T16:13:35.639Z,12.25
2019-05-17T16:15:42.174Z,13.53
2019-05-17T16:17:48.702Z,13.00
2019-05-17T16:19:55.145Z,10.03
2019-05-17T16:22:01.596Z,10.38
2019-05-17T16:24:08.108Z,12.53
2019-05-17T16:26:14.551Z,10.08
2019-05-17T16:28:21.164Z,8.53
2019-05-17T16:30:27.556Z,10.98
2019-05-17T16:32:34.070Z,9.00
2019-05-17T16:34:40.616Z,12.00
2019-05-17T16:36:47.073Z,8.63
2019-05-17T16:38:53.515Z,8.03
2019-05-17T16:41:00.154Z,10.13
2019-05-17T16:43:17.649Z,9.10
2019-05-17T16:45:19.087Z,9.68
2019-05-17T16:47:26.982Z,9.53
2019-05-17T16:49:33.518Z,12.60
2019-05-17T16:51:40.059Z,10.55
2019-05-17T16:53:46.463Z,13.38
2019-05-17T16:55:53.013Z,10.80
2019-05-17T16:57:59.473Z,10.50
2019-05-17T17:00:26.776Z,14.35
2019-05-17T17:02:34.405Z,12.00
2019-05-17T17:04:41.013Z,19.60
2019-05-17T17:06:47.419Z,14.43
2019-05-17T17:08:53.968Z,14.93
2019-05-17T17:11:00.583Z,12.80
2019-05-17T17:13:07.500Z,11.78
2019-05-17T17:15:14.574Z,11.18
2019-05-17T17:17:21.189Z,13.43
2019-05-17T17:19:27.575Z,13.43
2019-05-17T17:21:34.122Z,13.30
2019-05-17T17:23:40.509Z,12.98
2019-05-17T17:25:47.117Z,11.75
2019-05-17T17:27:53.714Z,11.22
2019-05-17T17:30:00.205Z,16.02
2019-05-17T17:32:21.048Z,12.98
2019-05-17T17:34:18.433Z,10.50
2019-05-17T17:36:24.974Z,12.90
2019-05-17T17:38:31.487Z,12.65
2019-05-17T17:40:39.495Z,12.05
2019-05-17T17:42:45.952Z,16.07
2019-05-17T17:44:52.406Z,17.32
2019-05-17T17:46:58.966Z,16.80
2019-05-17T17:49:05.810Z,15.20
2019-05-17T17:51:12.339Z,14.00
2019-05-17T17:53:18.817Z,13.18
2019-05-17T17:55:25.491Z,13.83
2019-05-17T17:57:32.018Z,12.15
2019-05-17T17:59:38.585Z,17.65
2019-05-17T18:01:45.323Z,17.52
2019-05-17T18:03:52.047Z,15.48
2019-05-17T18:05:58.637Z,16.48
2019-05-17T18:08:06.834Z,19.75
2019-05-17T18:10:29.668Z,23.12
2019-05-17T18:12:36.189Z,25.77
2019-05-17T18:14:42.585Z,23.35
2019-05-17T18:16:49.209Z,23.52
2019-05-17T18:18:55.689Z,26.25
2019-05-17T18:21:02.090Z,20.68
2019-05-17T18:23:08.781Z,18.92
2019-05-17T18:25:16.820Z,22.70
2019-05-17T18:27:23.300Z,18.93
2019-05-17T18:29:29.946Z,17.35
2019-05-17T18:31:36.407Z,19.80
2019-05-17T18:33:42.971Z,24.98
2019-05-17T18:35:49.520Z,21.20
2019-05-17T18:37:56.167Z,23.92
2019-05-17T18:40:04.412Z,23.52
2019-05-17T18:42:10.965Z,21.23
2019-05-17T18:44:27.302Z,19.90
2019-05-17T18:46:25.907Z,20.30
2019-05-17T18:48:32.557Z,24.18
2019-05-17T18:50:38.967Z,18.70
2019-05-17T18:52:45.580Z,22.87
2019-05-17T18:54:52.291Z,23.92
2019-05-17T18:56:58.852Z,21.33
2019-05-17T18:59:05.307Z,28.98
2019-05-17T19:01:11.915Z,26.97
2019-05-17T19:03:18.309Z,28.30
2019-05-17T19:05:24.963Z,29.82
2019-05-17T19:07:31.567Z,24.80
2019-05-17T19:09:38.019Z,25.62
2019-05-17T19:11:44.583Z,26.85
2019-05-17T19:13:51.103Z,26.52
2019-05-17T19:15:57.549Z,30.00
2019-05-17T19:18:04.108Z,31.62
2019-05-17T19:20:12.731Z,27.20
2019-05-17T19:22:19.574Z,31.25
2019-05-17T19:24:26.202Z,28.05
2019-05-17T19:26:32.706Z,24.72
2019-05-17T19:28:39.270Z,28.45
2019-05-17T19:30:45.810Z,25.37
2019-05-17T19:32:52.309Z,28.00
2019-05-17T19:34:58.717Z,31.52
2019-05-17T19:37:05.423Z,27.95
2019-05-17T19:39:12.183Z,32.05
2019-05-17T19:41:18.710Z,26.55
2019-05-17T19:43:25.145Z,34.25
2019-05-17T19:45:31.685Z,34.88
2019-05-17T19:47:38.106Z,34.70
2019-05-17T19:49:46.183Z,29.95
2019-05-17T19:51:56.055Z,30.70
2019-05-17T19:54:02.758Z,29.52
2019-05-17T19:56:10.223Z,33.75
2019-05-17T19:58:16.951Z,29.18
2019-05-17T20:00:24.016Z,30.62
2019-05-17T20:02:30.653Z,31.40
2019-05-17T20:04:37.180Z,31.55
2019-05-17T20:06:43.888Z,36.00
2019-05-17T20:09:15.325Z,28.55
2019-05-17T20:11:33.940Z,31.27
2019-05-17T20:13:33.496Z,36.55
2019-05-17T20:15:56.465Z,30.30
2019-05-17T20:18:03.112Z,37.50
2019-05-17T20:20:10.301Z,33.78
2019-05-17T20:22:17.018Z,33.83
2019-05-17T20:24:25.311Z,35.10
2019-05-17T20:26:32.723Z,33.80
2019-05-17T20:31:04.520Z,42.78
2019-05-17T20:33:11.227Z,63.23
2019-05-17T20:35:18.178Z,40.58
2019-05-17T20:37:24.751Z,37.38
2019-05-17T20:39:31.278Z,38.13
2019-05-17T20:41:39.289Z,38.13
2019-05-17T20:43:48.803Z,43.70
2019-05-17T20:45:55.436Z,38.67
2019-05-17T20:48:03.807Z,35.30
2019-05-17T20:50:12.669Z,38.88
2019-05-17T20:52:19.828Z,36.80
2019-05-17T20:54:26.399Z,40.25
2019-05-17T20:56:34.928Z,40.65
2019-05-17T20:58:44.609Z,37.38
2019-05-17T21:00:51.262Z,34.75
2019-05-17T21:02:57.948Z,34.38
2019-05-17T21:05:07.310Z,40.73
2019-05-17T21:07:14.078Z,35.00
2019-05-17T21:09:25.874Z,35.15
2019-05-17T21:11:32.419Z,34.75
2019-05-17T21:13:39.282Z,34.18
2019-05-17T21:15:48.190Z,32.53
2019-05-17T21:17:54.489Z,33.05
2019-05-17T21:20:04.881Z,28.42
2019-05-17T21:22:12.140Z,38.02
2019-05-17T21:24:18.670Z,35.10
2019-05-17T21:26:25.245Z,34.33
2019-05-17T21:28:32.526Z,31.85
2019-05-17T21:30:39.141Z,32.03
2019-05-17T21:32:45.701Z,38.48
2019-05-17T21:34:52.368Z,31.85
2019-05-17T21:36:59.048Z,31.52
2019-05-17T21:39:07.888Z,33.13
2019-05-17T21:41:14.424Z,27.75
2019-05-17T21:43:20.980Z,29.67
2019-05-17T21:45:27.682Z,27.48
2019-05-17T21:47:35.852Z,29.37
2019-05-17T21:49:44.374Z,32.73
2019-05-17T21:54:46.420Z,29.30
2019-05-17T21:59:28.034Z,30.02
2019-05-17T22:01:35.108Z,28.05
2019-05-17T22:03:41.866Z,27.00
2019-05-17T22:05:48.376Z,30.17
2019-05-17T22:08:13.005Z,30.35
2019-05-17T22:11:02.705Z,28.70
2019-05-17T22:12:36.867Z,27.98
2019-05-17T22:14:46.402Z,29.27
2019-05-17T22:16:53.123Z,29.30
2019-05-17T22:19:01.447Z,29.07
2019-05-17T22:21:08.092Z,32.80
2019-05-17T22:23:14.497Z,30.40
2019-05-17T22:25:20.956Z,30.12
2019-05-17T22:27:27.362Z,36.05
2019-05-17T22:29:33.774Z,30.50
2019-05-17T22:31:40.295Z,28.80
2019-05-17T22:33:46.787Z,29.10
2019-05-17T22:35:54.886Z,27.13
2019-05-17T22:38:01.472Z,23.83
2019-05-17T22:40:08.521Z,23.90
2019-05-17T22:42:15.407Z,25.88
2019-05-17T22:44:22.939Z,22.98
2019-05-17T22:46:36.223Z,26.05
2019-05-17T22:48:39.778Z,27.87
2019-05-17T22:50:46.787Z,22.67
2019-05-17T22:52:54.039Z,22.52
2019-05-17T22:55:00.930Z,28.12
2019-05-17T22:57:07.589Z,23.02
2019-05-17T22:59:14.109Z,22.55
2019-05-17T23:01:20.655Z,21.70
2019-05-17T23:03:27.319Z,22.10
2019-05-17T23:05:33.858Z,21.68
2019-05-17T23:07:41.316Z,23.12
2019-05-17T23:09:47.846Z,21.45
2019-05-17T23:11:54.349Z,21.87
2019-05-17T23:14:00.868Z,21.10
2019-05-17T23:16:09.078Z,21.25
2019-05-17T23:18:21.170Z,20.77
2019-05-17T23:20:27.759Z,20.25
2019-05-17T23:22:34.280Z,22.07
2019-05-17T23:24:40.713Z,23.62
2019-05-17T23:26:47.249Z,22.07
2019-05-17T23:28:53.858Z,22.98
2019-05-17T23:31:00.479Z,22.60
2019-05-17T23:33:07.121Z,20.43
2019-05-17T23:35:13.843Z,19.92
2019-05-17T23:37:20.479Z,18.92
2019-05-17T23:39:26.974Z,23.55
2019-05-17T23:41:33.515Z,21.75
2019-05-17T23:43:42.400Z,21.80
2019-05-17T23:45:49.006Z,22.22
2019-05-17T23:47:57.932Z,21.57
2019-05-17T23:50:07.203Z,21.30
2019-05-17T23:52:13.797Z,23.10
2019-05-17T23:54:20.477Z,23.95
2019-05-17T23:56:29.194Z,20.12
2019-05-17T23:58:36.977Z,20.43
